Time;durP1;ratioP1;P1;durP2;ratioP2;P2;SDS_P1;SDS_P2;PMS_P1;PMS_P2;Temp;Humidity;BMP_temperature;BMP_pressure;BME280_temperature;BME280_humidity;BME280_pressure;Samples;Min_cycle;Max_cycle;Signal;HPM_P1;HPM_P2
2023/08/04 00:01:15;;;;;;;2.00;1.87;;;17.70;1.00;;;;;;5053061;28;20473;-74
2023/08/04 00:03:43;;;;;;;1.97;1.87;;;17.70;1.00;;;;;;5053948;28;20467;-74
2023/08/04 00:06:11;;;;;;;2.03;1.80;;;17.60;1.00;;;;;;5050899;28;20471;-76
2023/08/04 00:08:38;;;;;;;1.73;1.63;;;17.60;1.00;;;;;;5054764;28;20509;-74
2023/08/04 00:11:05;;;;;;;2.30;1.53;;;17.60;1.00;;;;;;5053226;28;20469;-76
2023/08/04 00:13:34;;;;;;;2.40;1.90;;;17.60;1.00;;;;;;5054106;28;20454;-77
2023/08/04 00:16:07;;;;;;;1.97;1.40;;;17.60;1.00;;;;;;5054607;28;20633;-76
2023/08/04 00:18:37;;;;;;;2.27;2.07;;;17.70;1.00;;;;;;5053072;28;20449;-76
2023/08/04 00:21:05;;;;;;;1.80;1.60;;;17.80;1.00;;;;;;5053296;28;20839;-77
2023/08/04 00:23:32;;;;;;;1.67;1.57;;;17.90;1.00;;;;;;5051709;28;20489;-76
2023/08/04 00:25:59;;;;;;;3.60;1.90;;;18.00;1.00;;;;;;5051112;28;20482;-76
2023/08/04 00:28:26;;;;;;;2.60;1.80;;;18.00;1.00;;;;;;5053429;28;20530;-76
2023/08/04 00:30:53;;;;;;;2.67;1.77;;;18.00;1.00;;;;;;5050436;28;20481;-76
2023/08/04 00:33:20;;;;;;;2.13;1.90;;;18.00;1.00;;;;;;5054529;28;20510;-77
2023/08/04 00:35:46;;;;;;;1.80;1.70;;;18.00;1.00;;;;;;5054741;28;20975;-77
2023/08/04 00:38:15;;;;;;;2.70;2.20;;;18.10;1.00;;;;;;5054687;28;20483;-76
2023/08/04 00:40:41;;;;;;;2.23;1.50;;;18.20;1.00;;;;;;5054698;28;20553;-77
2023/08/04 00:43:08;;;;;;;2.30;2.10;;;18.30;1.00;;;;;;5053835;28;20497;-77
2023/08/04 00:45:36;;;;;;;2.40;2.20;;;18.30;1.00;;;;;;5057105;28;20446;-77
2023/08/04 00:48:03;;;;;;;1.97;1.77;;;18.30;1.00;;;;;;5056468;28;20521;-76
2023/08/04 00:50:32;;;;;;;2.60;2.40;;;18.20;1.00;;;;;;5056836;28;20475;-76
2023/08/04 00:53:00;;;;;;;2.23;2.03;;;18.20;1.00;;;;;;5058242;28;20463;-76
2023/08/04 00:55:29;;;;;;;2.80;2.07;;;18.20;1.00;;;;;;5057331;28;20467;-76
2023/08/04 00:57:57;;;;;;;2.10;2.00;;;18.20;1.00;;;;;;5057109;28;20461;-77
2023/08/04 01:00:24;;;;;;;3.60;2.23;;;18.30;1.00;;;;;;5057015;28;20471;-73
2023/08/04 01:02:51;;;;;;;2.43;2.20;;;18.30;1.00;;;;;;5055815;28;21007;-73
2023/08/04 01:05:18;;;;;;;3.70;2.50;;;18.30;1.00;;;;;;5055125;28;20578;-73
2023/08/04 01:07:53;;;;;;;2.77;2.57;;;18.30;1.00;;;;;;5056466;28;20521;-73
2023/08/04 01:10:26;;;;;;;2.73;2.50;;;18.30;1.00;;;;;;5053651;28;20505;-74
2023/08/04 01:13:01;;;;;;;2.70;2.50;;;18.30;1.00;;;;;;5054998;28;20558;-73
2023/08/04 01:15:29;;;;;;;4.10;2.20;;;18.40;1.00;;;;;;5053228;28;20467;-74
2023/08/04 01:17:56;;;;;;;3.57;2.50;;;18.40;1.00;;;;;;5054163;28;20678;-74
2023/08/04 01:20:24;;;;;;;2.50;2.30;;;18.40;1.00;;;;;;5053850;28;20533;-73
2023/08/04 01:22:52;;;;;;;2.60;2.40;;;18.40;1.00;;;;;;5053775;28;20435;-74
2023/08/04 01:25:23;;;;;;;2.87;2.67;;;18.40;1.00;;;;;;5053601;28;20440;-73
2023/08/04 01:27:56;;;;;;;2.90;2.70;;;18.40;1.00;;;;;;5055432;28;21699;-73
2023/08/04 01:30:25;;;;;;;3.00;2.70;;;18.50;1.00;;;;;;5053652;28;20579;-73
2023/08/04 01:32:52;;;;;;;3.00;2.70;;;18.50;1.00;;;;;;5052377;28;20458;-74
2023/08/04 01:35:20;;;;;;;4.17;2.13;;;18.50;1.00;;;;;;5054396;28;20854;-73
2023/08/04 01:37:47;;;;;;;3.00;2.80;;;18.50;1.00;;;;;;5055101;28;20472;-74
2023/08/04 01:40:15;;;;;;;3.03;2.80;;;18.50;1.00;;;;;;5054738;28;20561;-74
2023/08/04 01:42:42;;;;;;;3.77;3.20;;;18.50;1.00;;;;;;5051150;28;20468;-73
2023/08/04 01:45:10;;;;;;;3.23;2.90;;;18.50;1.00;;;;;;5054014;28;20483;-73
2023/08/04 01:47:38;;;;;;;4.30;3.30;;;18.50;1.00;;;;;;5053010;28;20490;-74
2023/08/04 01:50:07;;;;;;;4.20;3.20;;;18.50;1.00;;;;;;5052244;28;20553;-74
2023/08/04 01:52:34;;;;;;;5.17;3.40;;;18.50;1.00;;;;;;5053620;28;20542;-73
2023/08/04 01:55:01;;;;;;;3.67;2.80;;;18.40;1.00;;;;;;5053337;28;20467;-74
2023/08/04 01:57:29;;;;;;;6.43;3.33;;;18.30;1.00;;;;;;5052330;28;20459;-74
2023/08/04 01:59:56;;;;;;;3.47;3.10;;;18.40;1.00;;;;;;5054000;28;20485;-74
2023/08/04 02:02:23;;;;;;;5.43;2.90;;;18.50;1.00;;;;;;5051659;28;20462;-74
2023/08/04 02:04:50;;;;;;;4.40;3.17;;;18.50;1.00;;;;;;5053507;28;20572;-74
2023/08/04 02:07:17;;;;;;;6.23;3.80;;;18.50;1.00;;;;;;5036086;28;20494;-73
2023/08/04 02:09:44;;;;;;;3.47;3.03;;;18.50;1.00;;;;;;5054565;28;20482;-74
2023/08/04 02:12:11;;;;;;;4.73;3.63;;;18.50;1.00;;;;;;5053323;28;20469;-73
2023/08/04 02:14:39;;;;;;;3.97;3.60;;;18.50;1.00;;;;;;5053563;28;20481;-74
2023/08/04 02:17:06;;;;;;;4.40;3.40;;;18.50;1.00;;;;;;5052629;28;20958;-74
2023/08/04 02:19:33;;;;;;;4.90;4.00;;;18.30;1.00;;;;;;5053097;28;20552;-74
2023/08/04 02:22:00;;;;;;;4.17;3.80;;;18.10;1.00;;;;;;5053709;28;20449;-74
2023/08/04 02:24:27;;;;;;;6.90;4.13;;;18.00;1.00;;;;;;5054356;28;20497;-74
2023/08/04 02:26:54;;;;;;;6.40;4.03;;;17.90;1.00;;;;;;5050813;28;20453;-74
2023/08/04 02:29:21;;;;;;;5.67;5.00;;;17.90;1.00;;;;;;5052170;28;20466;-75
2023/08/04 02:31:49;;;;;;;5.60;4.50;;;17.80;1.00;;;;;;5052163;28;20456;-74
2023/08/04 02:34:16;;;;;;;7.00;3.80;;;17.80;1.00;;;;;;5053652;28;20957;-74
2023/08/04 02:36:43;;;;;;;7.60;4.80;;;17.80;1.00;;;;;;5054202;28;20557;-74
2023/08/04 02:39:10;;;;;;;4.97;4.47;;;17.70;1.00;;;;;;5051628;28;20888;-74
2023/08/04 02:41:37;;;;;;;5.13;4.70;;;17.70;1.00;;;;;;5052292;28;20449;-74
2023/08/04 02:44:06;;;;;;;7.00;5.03;;;17.80;1.00;;;;;;5050254;28;20911;-74
2023/08/04 02:46:33;;;;;;;6.10;4.40;;;17.70;1.00;;;;;;5053314;28;20478;-74
2023/08/04 02:49:03;;;;;;;5.47;4.97;;;17.70;1.00;;;;;;5054174;28;20564;-74
2023/08/04 02:51:30;;;;;;;5.70;4.13;;;17.70;1.00;;;;;;5052217;28;20490;-75
2023/08/04 02:53:57;;;;;;;5.10;4.50;;;17.70;1.00;;;;;;5052889;28;20995;-73
2023/08/04 02:56:24;;;;;;;5.37;4.97;;;17.70;1.00;;;;;;5052994;28;20898;-74
2023/08/04 02:58:51;;;;;;;9.17;5.20;;;17.70;1.00;;;;;;5052647;28;20477;-74
2023/08/04 03:01:18;;;;;;;8.83;5.00;;;17.70;1.00;;;;;;5052996;28;20486;-74
2023/08/04 03:03:45;;;;;;;5.77;4.47;;;17.70;1.00;;;;;;5050798;28;20556;-74
2023/08/04 03:06:13;;;;;;;8.13;4.73;;;17.70;1.00;;;;;;5053841;28;20564;-75
2023/08/04 03:08:40;;;;;;;5.53;4.93;;;17.70;1.00;;;;;;5053170;28;20552;-74
2023/08/04 03:11:10;;;;;;;7.80;5.20;;;17.70;1.00;;;;;;5051786;28;20478;-74
2023/08/04 03:13:37;;;;;;;5.40;4.57;;;17.70;1.00;;;;;;5052682;28;21324;-74
2023/08/04 03:16:06;;;;;;;6.83;4.83;;;17.80;1.00;;;;;;5053486;28;20532;-73
2023/08/04 03:18:33;;;;;;;5.60;4.57;;;17.80;1.00;;;;;;5053200;28;20919;-73
2023/08/04 03:21:02;;;;;;;5.80;5.00;;;17.80;1.00;;;;;;5051069;28;20454;-79
2023/08/04 03:23:31;;;;;;;5.23;4.43;;;17.90;1.00;;;;;;5054945;28;20465;-79
2023/08/04 03:25:58;;;;;;;6.73;5.43;;;18.00;1.00;;;;;;5052292;28;20457;-79
2023/08/04 03:28:25;;;;;;;5.77;5.27;;;18.10;1.00;;;;;;5054774;28;20567;-79
2023/08/04 03:30:52;;;;;;;7.00;5.00;;;18.10;1.00;;;;;;5055548;28;20542;-79
2023/08/04 03:33:19;;;;;;;7.43;4.93;;;18.10;1.00;;;;;;5052293;28;20557;-79
2023/08/04 03:35:46;;;;;;;8.60;4.80;;;18.10;1.00;;;;;;5051328;28;20512;-79
2023/08/04 03:38:13;;;;;;;6.13;4.67;;;18.10;1.00;;;;;;5051682;28;20445;-78
2023/08/04 03:40:41;;;;;;;7.67;5.63;;;18.10;1.00;;;;;;5052113;28;20471;-79
2023/08/04 03:43:08;;;;;;;7.80;4.77;;;18.10;1.00;;;;;;5051447;28;20459;-78
2023/08/04 03:45:35;;;;;;;8.93;5.50;;;18.10;1.00;;;;;;5052667;28;20505;-78
2023/08/04 03:48:02;;;;;;;5.17;4.67;;;18.10;1.00;;;;;;5052515;28;20470;-79
2023/08/04 03:50:29;;;;;;;10.87;5.37;;;18.10;1.00;;;;;;5053183;28;20554;-79
2023/08/04 03:52:56;;;;;;;6.97;5.30;;;18.10;1.00;;;;;;5053538;28;20461;-80
2023/08/04 03:55:23;;;;;;;13.77;12.50;;;18.10;1.00;;;;;;5055082;28;21048;-79
2023/08/04 03:57:51;;;;;;;6.47;4.77;;;18.00;1.00;;;;;;5053965;28;20536;-79
2023/08/04 04:00:19;;;;;;;8.30;5.43;;;18.00;1.00;;;;;;5055379;28;20459;-79
2023/08/04 04:02:47;;;;;;;7.57;5.80;;;18.00;1.00;;;;;;5050304;28;20484;-78
2023/08/04 04:05:14;;;;;;;7.80;5.13;;;18.00;1.00;;;;;;5049515;28;20461;-78
2023/08/04 04:07:41;;;;;;;6.50;5.43;;;18.00;1.00;;;;;;5053171;28;20530;-78
2023/08/04 04:10:09;;;;;;;6.30;4.90;;;18.00;1.00;;;;;;5054025;28;20535;-80
2023/08/04 04:12:36;;;;;;;8.70;5.30;;;18.00;1.00;;;;;;5053651;28;20488;-78
2023/08/04 04:15:05;;;;;;;7.37;5.27;;;17.90;1.00;;;;;;5054045;28;20821;-80
2023/08/04 04:17:32;;;;;;;7.63;5.60;;;17.80;1.00;;;;;;5054453;28;20939;-77
2023/08/04 04:19:59;;;;;;;7.30;5.07;;;17.90;1.00;;;;;;5057571;28;20468;-78
2023/08/04 04:22:26;;;;;;;7.40;5.57;;;17.80;1.00;;;;;;5057517;28;20464;-78
2023/08/04 04:24:53;;;;;;;7.73;5.20;;;17.80;1.00;;;;;;5058254;28;20480;-77
2023/08/04 04:27:20;;;;;;;8.17;6.43;;;17.80;1.00;;;;;;5059818;28;20489;-79
2023/08/04 04:29:47;;;;;;;9.17;5.90;;;17.80;1.00;;;;;;5059031;28;20994;-79
2023/08/04 04:32:15;;;;;;;5.90;5.23;;;17.90;1.00;;;;;;5057550;28;21000;-78
2023/08/04 04:34:42;;;;;;;7.83;5.87;;;17.90;1.00;;;;;;5057868;28;20459;-79
2023/08/04 04:37:09;;;;;;;11.57;10.37;;;17.90;1.00;;;;;;5057183;28;20528;-78
2023/08/04 04:39:36;;;;;;;8.33;5.90;;;17.90;1.00;;;;;;5057974;28;20541;-80
2023/08/04 04:42:05;;;;;;;8.53;5.87;;;17.90;1.00;;;;;;5057887;28;21834;-79
2023/08/04 04:44:32;;;;;;;7.60;5.37;;;17.90;1.00;;;;;;5056361;28;20886;-78
2023/08/04 04:46:59;;;;;;;8.83;5.97;;;17.90;1.00;;;;;;5058665;28;20472;-79
2023/08/04 04:49:27;;;;;;;10.07;5.73;;;17.80;1.00;;;;;;5057452;28;20462;-78
2023/08/04 04:51:54;;;;;;;8.17;5.50;;;17.90;1.00;;;;;;5058973;28;20472;-76
2023/08/04 04:54:22;;;;;;;6.17;5.57;;;17.80;1.00;;;;;;5055270;28;20865;-76
2023/08/04 04:56:50;;;;;;;7.67;6.00;;;17.90;1.00;;;;;;5056040;28;20524;-76
2023/08/04 04:59:17;;;;;;;5.47;4.87;;;17.80;1.00;;;;;;5057243;28;20512;-76
2023/08/04 05:01:44;;;;;;;9.17;5.90;;;17.80;1.00;;;;;;5054893;28;20474;-76
2023/08/04 05:04:11;;;;;;;14.77;6.50;;;17.80;1.00;;;;;;5055594;28;20481;-76
2023/08/04 05:06:39;;;;;;;9.50;5.73;;;17.80;1.00;;;;;;5047995;28;20706;-77
2023/08/04 05:09:08;;;;;;;8.07;6.77;;;17.80;1.00;;;;;;5056322;28;21663;-77
2023/08/04 05:11:35;;;;;;;7.93;5.20;;;17.90;1.00;;;;;;5046662;28;20458;-76
2023/08/04 05:14:02;;;;;;;11.20;6.37;;;18.10;1.00;;;;;;5056234;28;20460;-75
2023/08/04 05:16:28;;;;;;;8.83;6.33;;;18.20;1.00;;;;;;5055668;28;20975;-76
2023/08/04 05:18:55;;;;;;;7.00;5.37;;;18.40;1.00;;;;;;5054624;28;20463;-77
2023/08/04 05:21:22;;;;;;;6.13;4.87;;;18.60;1.00;;;;;;5058636;28;20514;-76
2023/08/04 05:23:52;;;;;;;6.07;5.40;;;18.70;1.00;;;;;;5054723;28;20463;-77
2023/08/04 05:26:19;;;;;;;5.77;4.97;;;18.60;1.00;;;;;;5054631;28;20475;-77
2023/08/04 05:28:47;;;;;;;6.20;4.90;;;18.60;1.00;;;;;;5055090;28;20461;-75
2023/08/04 05:31:14;;;;;;;11.67;5.63;;;18.60;1.00;;;;;;5051576;28;20467;-75
2023/08/04 05:33:41;;;;;;;8.37;5.20;;;18.60;1.00;;;;;;5053801;28;20495;-76
2023/08/04 05:36:09;;;;;;;4.70;4.20;;;18.70;1.00;;;;;;5056181;28;20544;-76
2023/08/04 05:38:37;;;;;;;11.63;5.67;;;18.70;1.00;;;;;;5054449;28;20482;-76
2023/08/04 05:41:05;;;;;;;8.90;6.27;;;18.80;1.00;;;;;;5055106;28;20492;-76
2023/08/04 05:43:33;;;;;;;9.00;5.43;;;18.90;1.00;;;;;;5053314;28;20880;-77
2023/08/04 05:46:02;;;;;;;6.10;5.47;;;18.80;1.00;;;;;;5057653;28;20531;-76
2023/08/04 05:48:29;;;;;;;5.77;4.90;;;18.90;1.00;;;;;;5052485;28;20571;-76
2023/08/04 05:50:56;;;;;;;8.47;4.90;;;18.80;1.00;;;;;;5054367;28;20557;-76
2023/08/04 05:53:23;;;;;;;7.90;4.90;;;18.90;1.00;;;;;;5054368;28;20522;-76
2023/08/04 05:55:50;;;;;;;12.30;5.17;;;18.80;1.00;;;;;;5056484;28;20570;-76
2023/08/04 05:58:19;;;;;;;6.30;4.90;;;18.80;1.00;;;;;;5053948;28;20460;-76
2023/08/04 06:00:47;;;;;;;11.37;5.60;;;18.90;1.00;;;;;;5054240;28;20479;-76
2023/08/04 06:03:14;;;;;;;7.67;4.50;;;19.00;1.00;;;;;;5053242;28;20480;-76
2023/08/04 06:05:41;;;;;;;7.73;4.43;;;19.00;1.00;;;;;;5055179;28;20561;-76
2023/08/04 06:08:08;;;;;;;5.87;4.50;;;18.90;1.00;;;;;;5053807;28;20562;-76
2023/08/04 06:10:35;;;;;;;7.57;4.90;;;18.80;1.00;;;;;;5053638;28;20547;-76
2023/08/04 06:13:04;;;;;;;7.93;5.97;;;18.80;1.00;;;;;;5055837;28;20562;-78
2023/08/04 06:15:33;;;;;;;5.00;4.30;;;18.80;1.00;;;;;;5056421;28;21288;-78
2023/08/04 06:18:00;;;;;;;5.80;4.90;;;18.90;1.00;;;;;;5051532;28;20565;-77
2023/08/04 06:20:27;;;;;;;4.97;4.57;;;18.90;1.00;;;;;;5056187;28;20493;-78
2023/08/04 06:22:54;;;;;;;5.80;4.63;;;18.90;1.00;;;;;;5055962;28;21023;-78
2023/08/04 06:25:21;;;;;;;7.80;4.50;;;19.00;1.00;;;;;;5052944;28;20545;-80
2023/08/04 06:27:49;;;;;;;9.43;4.83;;;19.20;1.00;;;;;;5055480;28;20463;-79
2023/08/04 06:30:18;;;;;;;6.50;4.50;;;19.20;1.00;;;;;;5050558;28;20561;-79
2023/08/04 06:32:47;;;;;;;6.00;4.20;;;19.20;1.00;;;;;;5056515;28;20546;-78
2023/08/04 06:35:14;;;;;;;8.67;4.83;;;19.30;1.00;;;;;;5054404;28;20556;-77
2023/08/04 06:37:41;;;;;;;6.17;4.63;;;19.50;1.00;;;;;;5055650;28;21255;-81
2023/08/04 06:40:09;;;;;;;11.30;5.17;;;19.70;1.00;;;;;;5052681;28;20464;-81
2023/08/04 06:42:36;;;;;;;6.90;4.33;;;19.80;1.00;;;;;;5052430;28;20530;-78
2023/08/04 06:45:04;;;;;;;5.43;3.90;;;19.90;1.00;;;;;;5053231;28;20585;-78
2023/08/04 06:47:31;;;;;;;14.10;4.80;;;20.00;1.00;;;;;;5054519;28;20514;-78
2023/08/04 06:50:00;;;;;;;7.93;4.50;;;20.10;1.00;;;;;;5055498;28;20456;-79
2023/08/04 06:52:27;;;;;;;7.07;4.27;;;20.10;1.00;;;;;;5045435;28;20479;-79
2023/08/04 06:54:54;;;;;;;4.80;3.80;;;20.10;1.00;;;;;;5054958;28;20462;-79
2023/08/04 06:57:21;;;;;;;7.67;4.77;;;20.00;1.00;;;;;;5054768;28;20471;-79
2023/08/04 06:59:47;;;;;;;6.90;3.83;;;20.00;1.00;;;;;;5055271;28;20511;-80
2023/08/04 07:02:14;;;;;;;8.70;4.60;;;20.10;1.00;;;;;;5056210;28;20459;-78
2023/08/04 07:04:41;;;;;;;6.47;4.40;;;20.10;1.00;;;;;;5055087;28;20519;-78
2023/08/04 07:07:10;;;;;;;7.00;4.47;;;20.10;1.00;;;;;;5052192;28;20468;-78
2023/08/04 07:09:37;;;;;;;6.50;4.53;;;20.00;1.00;;;;;;5054035;28;20473;-80
2023/08/04 07:12:04;;;;;;;7.33;4.60;;;19.90;1.00;;;;;;5056404;28;20471;-78
2023/08/04 07:14:31;;;;;;;6.33;4.53;;;20.00;1.00;;;;;;5053190;28;20468;-78
2023/08/04 07:16:58;;;;;;;5.10;3.80;;;20.00;1.00;;;;;;5054503;28;20487;-79
2023/08/04 07:19:25;;;;;;;6.17;4.60;;;19.80;1.00;;;;;;5052003;28;20487;-78
2023/08/04 07:21:52;;;;;;;5.60;4.57;;;19.80;1.00;;;;;;5057782;28;20452;-75
2023/08/04 07:24:21;;;;;;;4.40;4.00;;;19.90;1.00;;;;;;5052862;28;20479;-74
2023/08/04 07:26:48;;;;;;;4.27;3.87;;;20.00;1.00;;;;;;5051195;28;20435;-74
2023/08/04 07:29:15;;;;;;;5.13;4.07;;;20.00;1.00;;;;;;5050501;28;20479;-74
2023/08/04 07:31:42;;;;;;;6.20;4.10;;;20.00;1.00;;;;;;5054068;28;20468;-74
2023/08/04 07:34:09;;;;;;;6.03;4.43;;;20.10;1.00;;;;;;5050344;28;20471;-74
2023/08/04 07:36:36;;;;;;;6.80;4.47;;;20.40;1.00;;;;;;5026997;28;20451;-74
2023/08/04 07:39:03;;;;;;;7.27;4.70;;;20.70;1.00;;;;;;5052209;28;20912;-74
2023/08/04 07:41:32;;;;;;;3.77;3.40;;;20.80;1.00;;;;;;5050642;28;20887;-74
2023/08/04 07:43:59;;;;;;;5.00;4.20;;;20.80;1.00;;;;;;5052893;28;20692;-75
2023/08/04 07:46:27;;;;;;;8.53;4.80;;;20.80;1.00;;;;;;5052908;28;20548;-75
2023/08/04 07:48:55;;;;;;;9.43;5.00;;;20.70;1.00;;;;;;5047524;28;20465;-74
2023/08/04 07:51:22;;;;;;;4.10;3.70;;;20.70;1.00;;;;;;5052045;28;20519;-74
2023/08/04 07:53:49;;;;;;;6.60;3.97;;;20.70;1.00;;;;;;5055256;28;20977;-74
2023/08/04 07:56:17;;;;;;;8.70;4.27;;;20.70;1.00;;;;;;5057815;28;20652;-74
2023/08/04 07:58:47;;;;;;;7.03;4.47;;;20.80;1.00;;;;;;5056018;28;20473;-75
2023/08/04 08:01:14;;;;;;;9.00;4.10;;;20.80;1.00;;;;;;5056104;28;20453;-75
2023/08/04 08:03:41;;;;;;;6.20;4.10;;;20.90;1.00;;;;;;5055253;28;20988;-75
2023/08/04 08:06:08;;;;;;;5.53;3.30;;;21.10;1.00;;;;;;5056854;28;20452;-75
2023/08/04 08:08:35;;;;;;;9.20;4.60;;;21.50;1.00;;;;;;5043295;28;20483;-74
2023/08/04 08:11:03;;;;;;;5.57;3.77;;;21.90;1.00;;;;;;5041368;28;20463;-74
2023/08/04 08:13:30;;;;;;;4.60;3.13;;;22.20;1.00;;;;;;5055360;28;20561;-74
2023/08/04 08:15:59;;;;;;;5.27;3.33;;;22.40;1.00;;;;;;5057174;28;20541;-75
2023/08/04 08:18:26;;;;;;;4.10;2.90;;;22.60;1.00;;;;;;5054212;28;20464;-74
2023/08/04 08:20:53;;;;;;;6.10;3.60;;;22.80;1.00;;;;;;5055837;28;20460;-73
2023/08/04 08:23:20;;;;;;;3.80;3.30;;;22.90;1.00;;;;;;5055665;28;20475;-74
2023/08/04 08:25:47;;;;;;;5.23;3.80;;;22.80;1.00;;;;;;5056957;28;20463;-75
2023/08/04 08:28:14;;;;;;;6.50;3.47;;;22.70;1.00;;;;;;5056477;28;20546;-75
2023/08/04 08:30:41;;;;;;;3.90;3.23;;;22.60;1.00;;;;;;5052230;28;20880;-75
2023/08/04 08:33:09;;;;;;;5.57;3.90;;;22.50;1.00;;;;;;5055405;28;20468;-79
2023/08/04 08:35:36;;;;;;;8.07;3.83;;;22.40;1.00;;;;;;5055748;28;20973;-79
2023/08/04 08:38:04;;;;;;;4.50;3.00;;;22.30;1.00;;;;;;5057438;28;20503;-78
2023/08/04 08:40:31;;;;;;;5.80;3.57;;;22.20;1.00;;;;;;5058720;28;20450;-79
2023/08/04 08:42:59;;;;;;;6.27;4.03;;;22.10;1.00;;;;;;5057904;28;20984;-78
2023/08/04 08:45:28;;;;;;;7.93;3.70;;;22.10;1.00;;;;;;5056254;28;20874;-78
2023/08/04 08:47:56;;;;;;;6.73;3.80;;;22.00;1.00;;;;;;5056190;28;20468;-78
2023/08/04 08:50:26;;;;;;;5.97;4.10;;;22.10;1.00;;;;;;5056142;28;20448;-79
2023/08/04 08:53:03;;;;;;;3.50;3.20;;;22.60;1.00;;;;;;5056590;28;21003;-79
2023/08/04 08:55:30;;;;;;;6.37;3.53;;;22.80;1.00;;;;;;5057574;28;20494;-80
2023/08/04 08:57:58;;;;;;;4.93;3.57;;;22.80;1.00;;;;;;5056666;28;20456;-78
2023/08/04 09:00:25;;;;;;;12.40;4.50;;;22.80;1.00;;;;;;5055417;28;20471;-79
2023/08/04 09:02:52;;;;;;;6.50;3.90;;;22.60;1.00;;;;;;5058863;28;20972;-80
2023/08/04 09:05:21;;;;;;;6.70;5.53;;;22.50;1.00;;;;;;5055025;28;20462;-80
2023/08/04 09:07:50;;;;;;;7.40;5.13;;;22.60;1.00;;;;;;5057134;28;20967;-78
2023/08/04 09:10:19;;;;;;;7.50;3.50;;;22.70;1.00;;;;;;5045382;28;20469;-79
2023/08/04 09:12:48;;;;;;;6.50;4.07;;;22.90;1.00;;;;;;5056309;28;20481;-79
2023/08/04 09:15:15;;;;;;;6.93;3.30;;;23.00;1.00;;;;;;5056022;28;20473;-80
2023/08/04 09:17:44;;;;;;;5.17;3.77;;;23.10;1.00;;;;;;5054911;28;21345;-79
2023/08/04 09:20:27;;;;;;;8.30;3.83;;;23.30;1.00;;;;;;5058724;28;20467;-79
2023/08/04 09:22:55;;;;;;;6.00;3.50;;;23.50;1.00;;;;;;5056529;28;20475;-79
2023/08/04 09:25:23;;;;;;;7.53;3.20;;;23.60;1.00;;;;;;5054828;28;20566;-78
2023/08/04 09:27:50;;;;;;;7.43;3.87;;;23.70;1.00;;;;;;5054369;28;20478;-79
2023/08/04 09:30:18;;;;;;;5.50;3.30;;;23.60;1.00;;;;;;5054168;28;20466;-78
2023/08/04 09:32:47;;;;;;;4.80;3.63;;;23.50;1.00;;;;;;5054052;28;20502;-79
2023/08/04 09:35:14;;;;;;;5.47;3.40;;;23.60;1.00;;;;;;5056262;28;20978;-79
2023/08/04 09:37:42;;;;;;;7.33;4.60;;;24.50;1.00;;;;;;5056318;28;20450;-79
2023/08/04 09:40:16;;;;;;;3.83;2.83;;;25.40;1.00;;;;;;5056290;28;20490;-80
2023/08/04 09:42:43;;;;;;;3.30;2.90;;;25.90;1.00;;;;;;5053461;28;20523;-79
2023/08/04 09:45:14;;;;;;;4.40;2.90;;;25.90;1.00;;;;;;5055992;28;20485;-80
2023/08/04 09:47:45;;;;;;;5.13;2.90;;;25.90;1.00;;;;;;5053425;28;20462;-79
2023/08/04 09:50:12;;;;;;;4.47;3.00;;;25.90;1.00;;;;;;5055964;28;20548;-79
2023/08/04 09:52:39;;;;;;;3.40;2.63;;;25.70;1.00;;;;;;5055452;28;20540;-79
2023/08/04 09:55:09;;;;;;;6.07;3.60;;;25.30;1.00;;;;;;5054360;28;20648;-79
2023/08/04 09:57:38;;;;;;;5.30;2.93;;;24.80;1.00;;;;;;5055168;28;20544;-79
2023/08/04 10:00:07;;;;;;;4.10;3.33;;;24.50;1.00;;;;;;5054819;28;20457;-79
2023/08/04 10:02:34;;;;;;;3.70;3.20;;;25.00;1.00;;;;;;5055589;28;20545;-79
2023/08/04 10:05:03;;;;;;;4.10;3.27;;;26.00;1.00;;;;;;5055069;28;20467;-80
2023/08/04 10:07:31;;;;;;;5.10;3.00;;;27.80;1.00;;;;;;5054355;28;20465;-78
2023/08/04 10:10:00;;;;;;;3.30;2.70;;;29.60;1.00;;;;;;5056352;28;20471;-79
2023/08/04 10:12:28;;;;;;;4.10;2.67;;;31.30;1.00;;;;;;5053060;28;20494;-79
2023/08/04 10:14:56;;;;;;;4.23;2.87;;;32.90;1.00;;;;;;5056154;28;20436;-78
2023/08/04 10:17:23;;;;;;;3.60;2.57;;;33.20;1.00;;;;;;5053147;28;20472;-78
2023/08/04 10:20:02;;;;;;;3.70;2.80;;;31.80;1.00;;;;;;5055027;28;20503;-79
2023/08/04 10:22:29;;;;;;;5.27;3.20;;;30.20;1.00;;;;;;5055902;28;20479;-78
2023/08/04 10:24:56;;;;;;;5.27;3.90;;;28.70;1.00;;;;;;5057234;28;20893;-79
2023/08/04 10:27:23;;;;;;;3.33;3.03;;;27.50;1.00;;;;;;5053090;28;20471;-78
2023/08/04 10:30:04;;;;;;;4.90;3.17;;;26.80;1.00;;;;;;5052478;28;20494;-78
2023/08/04 10:32:36;;;;;;;4.50;3.00;;;25.90;1.00;;;;;;5054048;28;20488;-82
2023/08/04 10:35:05;;;;;;;2.97;2.50;;;25.30;1.00;;;;;;5053302;28;20477;-81
2023/08/04 10:37:45;;;;;;;8.33;3.87;;;24.70;1.00;;;;;;5056502;28;20551;-79
2023/08/04 10:40:13;;;;;;;3.73;2.80;;;24.20;1.00;;;;;;5052988;28;20464;-81
2023/08/04 10:42:58;;;;;;;3.93;3.53;;;23.90;1.00;;;;;;5056828;28;21043;-79
2023/08/04 10:45:51;;;;;;;5.97;3.17;;;23.50;1.00;;;;;;5054525;28;20470;-80
2023/08/04 10:48:20;;;;;;;4.60;3.80;;;23.30;1.00;;;;;;5055477;28;20437;-78
2023/08/04 10:50:47;;;;;;;4.60;3.20;;;23.50;1.00;;;;;;5052884;28;20471;-79
2023/08/04 10:53:15;;;;;;;5.47;3.63;;;24.30;1.00;;;;;;5054998;28;20444;-80
2023/08/04 10:55:52;;;;;;;3.70;2.40;;;26.00;1.00;;;;;;5052873;28;21334;-76
2023/08/04 10:58:19;;;;;;;2.93;2.30;;;28.30;1.00;;;;;;5051485;28;20467;-76
2023/08/04 11:00:47;;;;;;;2.77;2.40;;;30.30;1.00;;;;;;5052715;28;20460;-77
2023/08/04 11:03:22;;;;;;;4.00;2.97;;;31.70;1.00;;;;;;5053167;28;20512;-77
2023/08/04 11:05:51;;;;;;;3.80;2.30;;;32.80;1.00;;;;;;5050597;28;20460;-76
2023/08/04 11:08:19;;;;;;;2.20;2.00;;;33.80;1.00;;;;;;5052363;28;20464;-76
2023/08/04 11:10:47;;;;;;;3.40;2.47;;;34.50;1.00;;;;;;5053589;28;20461;-76
2023/08/04 11:13:18;;;;;;;3.17;2.60;;;35.10;1.00;;;;;;5053202;28;20847;-77
2023/08/04 11:15:48;;;;;;;3.10;2.60;;;35.20;1.00;;;;;;5052884;28;20504;-76
2023/08/04 11:18:16;;;;;;;3.37;2.70;;;36.00;1.00;;;;;;5053559;28;20649;-75
2023/08/04 11:20:44;;;;;;;3.03;2.80;;;36.50;1.00;;;;;;5052369;28;20487;-76
2023/08/04 11:23:11;;;;;;;5.00;3.23;;;37.00;1.00;;;;;;5042252;28;20480;-76
2023/08/04 11:25:39;;;;;;;3.20;2.83;;;37.40;1.00;;;;;;5052884;28;20563;-76
2023/08/04 11:28:07;;;;;;;6.03;2.97;;;37.60;1.00;;;;;;5054244;28;20517;-76
2023/08/04 11:30:35;;;;;;;2.67;2.20;;;37.90;1.00;;;;;;5051435;28;20445;-75
2023/08/04 11:33:03;;;;;;;3.30;2.47;;;38.30;1.00;;;;;;5054046;28;20464;-76
2023/08/04 11:35:32;;;;;;;3.07;2.40;;;38.70;1.00;;;;;;5052237;28;20487;-76
2023/08/04 11:38:00;;;;;;;2.47;2.10;;;38.50;1.00;;;;;;5053795;28;20463;-76
2023/08/04 11:40:28;;;;;;;2.80;2.33;;;37.00;1.00;;;;;;5050743;28;20461;-75
2023/08/04 11:42:59;;;;;;;5.07;2.40;;;35.60;1.00;;;;;;5050041;28;20479;-75
2023/08/04 11:45:26;;;;;;;2.43;2.23;;;34.50;1.00;;;;;;5053335;28;20887;-76
2023/08/04 11:47:56;;;;;;;3.07;2.80;;;33.20;1.00;;;;;;5054227;28;20456;-76
2023/08/04 11:50:25;;;;;;;2.00;1.73;;;32.20;1.00;;;;;;5050658;28;20456;-76
2023/08/04 11:52:53;;;;;;;5.20;1.80;;;31.40;1.00;;;;;;5050002;28;20495;-76
2023/08/04 11:55:20;;;;;;;2.60;1.90;;;30.60;1.00;;;;;;5052124;28;20538;-76
2023/08/04 11:57:52;;;;;;;2.37;1.93;;;30.10;1.00;;;;;;5052927;28;20444;-76
2023/08/04 12:00:35;;;;;;;2.00;1.80;;;29.60;1.00;;;;;;5050877;28;20428;-76
2023/08/04 12:03:03;;;;;;;3.30;2.30;;;29.00;1.00;;;;;;5052252;28;20971;-76
2023/08/04 12:05:32;;;;;;;2.50;2.00;;;28.70;1.00;;;;;;5051679;28;20578;-78
2023/08/04 12:08:00;;;;;;;3.70;3.00;;;28.40;1.00;;;;;;5053792;28;20501;-79
2023/08/04 12:10:28;;;;;;;3.37;2.60;;;28.20;1.00;;;;;;5051345;28;20452;-80
2023/08/04 12:12:55;;;;;;;3.37;2.60;;;28.20;1.00;;;;;;5053233;28;20435;-79
2023/08/04 12:15:22;;;;;;;3.70;2.63;;;27.90;1.00;;;;;;5052929;28;20682;-78
2023/08/04 12:17:49;;;;;;;3.23;2.70;;;27.50;1.00;;;;;;5053260;28;20455;-78
2023/08/04 12:20:16;;;;;;;3.60;2.77;;;27.30;1.00;;;;;;5052704;28;20560;-78
2023/08/04 12:22:45;;;;;;;2.77;2.20;;;27.30;1.00;;;;;;5055166;28;20520;-78
2023/08/04 12:25:13;;;;;;;2.90;2.30;;;27.50;1.00;;;;;;5053083;28;21027;-78
2023/08/04 12:27:40;;;;;;;2.83;2.60;;;28.20;1.00;;;;;;5053796;28;21015;-79
2023/08/04 12:30:08;;;;;;;3.00;2.60;;;28.60;1.00;;;;;;5050552;28;20468;-78
2023/08/04 12:32:35;;;;;;;8.17;2.67;;;28.50;1.00;;;;;;5053835;28;20556;-78
2023/08/04 12:35:02;;;;;;;2.73;2.30;;;28.70;1.00;;;;;;5052030;28;20467;-78
2023/08/04 12:37:29;;;;;;;3.30;2.80;;;29.20;1.00;;;;;;5051155;28;20883;-80
2023/08/04 12:39:58;;;;;;;4.53;2.50;;;29.90;1.00;;;;;;5053534;28;20495;-77
2023/08/04 12:42:25;;;;;;;3.20;2.80;;;31.90;1.00;;;;;;5049218;28;21023;-79
2023/08/04 12:44:52;;;;;;;3.80;2.27;;;33.60;1.00;;;;;;5055345;28;20929;-79
2023/08/04 12:47:19;;;;;;;2.00;1.80;;;34.30;1.00;;;;;;5055941;28;20499;-79
2023/08/04 12:49:46;;;;;;;4.47;2.60;;;34.10;1.00;;;;;;5057074;28;20479;-78
2023/08/04 12:52:13;;;;;;;3.30;2.60;;;33.40;1.00;;;;;;5056165;28;20563;-79
2023/08/04 12:54:39;;;;;;;3.57;2.43;;;32.70;1.00;;;;;;5053093;28;20448;-79
2023/08/04 12:57:09;;;;;;;5.00;2.67;;;32.20;1.00;;;;;;5056328;28;20887;-79
2023/08/04 12:59:36;;;;;;;4.83;2.40;;;32.00;1.00;;;;;;5054683;28;20452;-79
2023/08/04 13:02:03;;;;;;;2.73;2.33;;;31.40;1.00;;;;;;5054695;28;20467;-78